Time;durP1;ratioP1;P1;durP2;ratioP2;P2;SDS_P1;SDS_P2;PMS_P1;PMS_P2;Temp;Humidity;BMP_temperature;BMP_pressure;BME280_temperature;BME280_humidity;BME280_pressure;Samples;Min_cycle;Max_cycle;Signal;HPM_P1;HPM_P2
2022/11/14 04:47:09;;;;;;;20.00;9.57;;;;;;;3.35;100.00;101515.19;5737473;28;20136;-86
2022/11/14 04:50:31;;;;;;;21.02;9.60;;;;;;;3.29;100.00;101507.63;5231395;34;34710;-86
2022/11/14 04:53:52;;;;;;;22.77;10.98;;;;;;;3.30;100.00;101506.66;5224686;34;34311;-86
2022/11/14 04:57:13;;;;;;;18.58;9.45;;;;;;;3.28;100.00;101500.63;5220194;34;34812;-86
2022/11/14 05:00:34;;;;;;;20.90;9.70;;;;;;;3.33;100.00;101502.94;5220540;34;34069;-86
2022/11/14 05:03:55;;;;;;;24.45;10.05;;;;;;;3.30;100.00;101506.66;5225463;34;33607;-86
2022/11/14 05:07:16;;;;;;;17.85;10.40;;;;;;;3.33;100.00;101493.16;5245287;33;34032;-86
2022/11/14 05:10:42;;;;;;;27.17;10.05;;;;;;;3.41;100.00;101497.97;5221320;34;33606;-86
2022/11/14 05:14:03;;;;;;;27.90;9.63;;;;;;;3.39;100.00;101495.44;5209787;34;32229;-86
2022/11/14 05:17:24;;;;;;;28.08;9.38;;;;;;;3.43;100.00;101488.06;5222923;34;34901;-86
2022/11/14 05:20:45;;;;;;;51.45;10.60;;;;;;;3.39;100.00;101487.44;5238168;34;33981;-86
2022/11/14 05:24:07;;;;;;;28.87;10.48;;;;;;;3.29;100.00;101489.00;5241412;34;35331;-86
2022/11/14 05:27:28;;;;;;;43.40;9.57;;;;;;;3.29;100.00;101497.00;5245173;34;34872;-87
2022/11/14 05:30:49;;;;;;;29.98;10.02;;;;;;;3.30;100.00;101489.84;5236868;34;34703;-87
2022/11/14 05:34:11;;;;;;;24.75;9.82;;;;;;;3.24;100.00;101499.09;5228338;34;33047;-86
2022/11/14 05:37:33;;;;;;;30.37;9.60;;;;;;;3.28;100.00;101495.28;5234387;34;33989;-86
2022/11/14 05:40:54;;;;;;;32.10;9.40;;;;;;;3.21;100.00;101496.66;5224364;34;33733;-86
2022/11/14 05:44:15;;;;;;;24.45;9.35;;;;;;;3.14;100.00;101488.22;5233766;34;34450;-87
2022/11/14 05:47:36;;;;;;;22.45;10.40;;;;;;;3.25;100.00;101490.19;5223340;34;33962;-86
2022/11/14 05:51:05;;;;;;;30.27;9.35;;;;;;;3.29;100.00;101496.12;5222962;34;34687;-86
2022/11/14 05:54:26;;;;;;;23.85;10.43;;;;;;;3.36;100.00;101495.63;5235294;34;34099;-83
2022/11/14 05:57:47;;;;;;;27.20;10.55;;;;;;;3.23;100.00;101492.09;5236827;34;34611;-84
2022/11/14 06:01:14;;;;;;;25.37;10.07;;;;;;;3.23;100.00;101502.72;5236631;34;34892;-84
2022/11/14 06:04:34;;;;;;;43.42;11.95;;;;;;;3.20;100.00;101502.09;5236343;34;33678;-84
2022/11/14 06:07:57;;;;;;;26.30;10.45;;;;;;;3.24;100.00;101493.78;5227300;34;34807;-88
2022/11/14 06:11:19;;;;;;;27.62;9.80;;;;;;;3.32;100.00;101490.59;5236868;34;34989;-85
2022/11/14 06:14:40;;;;;;;24.75;10.00;;;;;;;3.29;100.00;101498.81;5236822;34;34408;-83
2022/11/14 06:18:01;;;;;;;31.42;11.00;;;;;;;3.38;100.00;101507.00;5236468;34;33953;-84
2022/11/14 06:21:24;;;;;;;28.58;11.12;;;;;;;3.46;100.00;101509.16;5236675;34;34003;-84
2022/11/14 06:24:45;;;;;;;30.70;10.65;;;;;;;3.42;100.00;101518.28;5239820;34;32620;-84
2022/11/14 06:28:06;;;;;;;35.30;10.43;;;;;;;3.39;100.00;101516.72;5253040;33;35095;-83
2022/11/14 06:31:27;;;;;;;22.67;10.52;;;;;;;3.37;100.00;101521.28;5253585;33;34859;-84
2022/11/14 06:34:48;;;;;;;25.73;9.82;;;;;;;3.40;100.00;101517.56;5246413;33;33891;-88
2022/11/14 06:38:10;;;;;;;24.20;10.30;;;;;;;3.35;100.00;101520.53;5225072;34;32346;-85
2022/11/14 06:41:31;;;;;;;23.87;9.70;;;;;;;3.40;100.00;101525.56;5240864;34;33921;-85
2022/11/14 06:44:52;;;;;;;23.05;10.88;;;;;;;3.41;100.00;101530.75;5246963;34;34173;-84
2022/11/14 06:48:13;;;;;;;19.50;10.38;;;;;;;3.56;100.00;101523.53;5238102;34;33897;-84
2022/11/14 06:51:34;;;;;;;18.77;10.45;;;;;;;3.52;100.00;101518.53;5232249;33;35246;-84
2022/11/14 06:54:55;;;;;;;26.60;11.18;;;;;;;3.70;100.00;101516.44;5198652;34;34847;-84
2022/11/14 06:58:16;;;;;;;26.25;11.18;;;;;;;3.71;100.00;101507.47;5203687;34;34120;-84
2022/11/14 07:01:37;;;;;;;30.98;10.98;;;;;;;3.76;100.00;101521.34;5195270;34;204798;-84
2022/11/14 07:04:58;;;;;;;28.52;11.98;;;;;;;3.90;100.00;101513.25;5205718;34;34606;-85
2022/11/14 07:08:19;;;;;;;24.02;10.98;;;;;;;3.84;100.00;101513.69;5199901;34;33799;-84
2022/11/14 07:11:44;;;;;;;23.50;11.80;;;;;;;3.79;100.00;101518.47;5214201;34;33926;-84
2022/11/14 07:15:05;;;;;;;29.90;11.48;;;;;;;3.94;100.00;101521.87;5205500;34;34014;-84
2022/11/14 07:18:28;;;;;;;26.35;12.30;;;;;;;4.01;100.00;101524.00;5212145;34;32946;-84
2022/11/14 07:21:50;;;;;;;30.88;12.90;;;;;;;4.05;100.00;101532.63;5216470;34;33128;-84
2022/11/14 07:25:11;;;;;;;26.37;12.18;;;;;;;4.12;100.00;101531.22;5197854;34;34922;-84
2022/11/14 07:28:37;;;;;;;26.73;11.80;;;;;;;4.07;100.00;101528.06;5208281;34;32703;-84
2022/11/14 07:31:59;;;;;;;23.40;12.13;;;;;;;4.19;100.00;101529.84;5203371;34;34491;-85
2022/11/14 07:35:20;;;;;;;20.90;11.63;;;;;;;4.31;100.00;101522.81;5197490;34;34692;-85
2022/11/14 07:38:41;;;;;;;23.35;11.68;;;;;;;4.51;100.00;101516.91;5192696;34;32885;-84
2022/11/14 07:42:02;;;;;;;24.15;11.80;;;;;;;4.64;100.00;101519.53;5204397;34;34460;-85
2022/11/14 07:45:23;;;;;;;21.10;11.60;;;;;;;4.57;100.00;101518.28;5201622;34;34713;-84
2022/11/14 07:48:44;;;;;;;22.75;12.13;;;;;;;4.61;100.00;101527.75;5200621;34;33470;-84
2022/11/14 07:52:06;;;;;;;24.55;13.05;;;;;;;4.81;100.00;101518.28;5208059;33;33713;-84
2022/11/14 07:55:27;;;;;;;24.67;12.43;;;;;;;4.88;100.00;101521.34;5220140;34;34702;-84
2022/11/14 07:58:48;;;;;;;32.92;13.73;;;;;;;5.05;100.00;101514.78;5225826;34;34067;-85
2022/11/14 08:02:13;;;;;;;33.60;12.80;;;;;;;5.02;100.00;101517.69;5234506;34;34678;-84
2022/11/14 08:05:34;;;;;;;25.65;13.35;;;;;;;5.13;100.00;101518.56;5214165;34;34326;-84
2022/11/14 08:08:55;;;;;;;31.60;13.55;;;;;;;5.31;100.00;101513.66;5217057;34;34678;-84
2022/11/14 08:12:16;;;;;;;32.05;14.15;;;;;;;5.40;100.00;101506.78;5218045;34;34002;-84
2022/11/14 08:15:37;;;;;;;30.62;13.77;;;;;;;5.53;100.00;101507.56;5220165;34;33962;-84
2022/11/14 08:18:59;;;;;;;33.33;15.00;;;;;;;5.60;100.00;101506.12;5218873;34;32678;-84
2022/11/14 08:22:20;;;;;;;23.33;13.10;;;;;;;5.74;100.00;101502.38;5218616;34;34475;-84
2022/11/14 08:25:41;;;;;;;24.73;13.13;;;;;;;5.73;100.00;101494.47;5222407;34;34217;-85
2022/11/14 08:29:02;;;;;;;33.38;14.35;;;;;;;5.95;100.00;101493.69;5222943;34;34277;-85
2022/11/14 08:32:23;;;;;;;27.50;14.63;;;;;;;6.01;100.00;101478.03;5230639;34;33973;-85
2022/11/14 08:35:44;;;;;;;29.15;14.05;;;;;;;6.02;100.00;101484.22;5232577;34;35396;-84
2022/11/14 08:39:05;;;;;;;26.10;14.02;;;;;;;6.05;100.00;101483.97;5237964;34;35589;-84
2022/11/14 08:42:27;;;;;;;26.60;13.65;;;;;;;6.27;100.00;101472.44;5207201;34;32895;-84
2022/11/14 08:45:48;;;;;;;24.12;14.10;;;;;;;6.48;100.00;101481.37;5223584;34;35145;-84
2022/11/14 08:49:09;;;;;;;23.23;14.05;;;;;;;6.51;100.00;101478.47;5220946;34;33889;-84
2022/11/14 08:52:33;;;;;;;25.27;13.77;;;;;;;6.67;100.00;101471.84;5220275;34;33863;-85
2022/11/14 08:55:55;;;;;;;26.73;14.55;;;;;;;6.99;100.00;101477.22;5218562;34;34414;-84
2022/11/14 08:59:16;;;;;;;28.62;15.45;;;;;;;7.30;100.00;101478.19;5235366;34;32181;-84
2022/11/14 09:02:37;;;;;;;23.67;13.73;;;;;;;7.33;100.00;101477.09;5237511;34;35580;-84
2022/11/14 09:05:58;;;;;;;27.65;14.68;;;;;;;7.49;100.00;101483.72;5228954;34;35492;-84
2022/11/14 09:09:19;;;;;;;26.65;14.35;;;;;;;7.60;100.00;101480.09;5217123;34;34041;-84
2022/11/14 09:12:40;;;;;;;37.20;16.58;;;;;;;7.77;100.00;101473.28;5207051;34;32574;-84
2022/11/14 09:16:01;;;;;;;28.25;15.40;;;;;;;8.14;100.00;101470.09;5220002;34;33849;-84
2022/11/14 09:19:23;;;;;;;27.35;14.60;;;;;;;8.42;100.00;101467.66;5224832;34;34399;-86
2022/11/14 09:22:45;;;;;;;29.55;16.15;;;;;;;8.67;100.00;101471.69;5219564;34;34375;-82
2022/11/14 09:26:08;;;;;;;31.50;16.55;;;;;;;8.90;100.00;101467.75;5206556;34;32584;-82
2022/11/14 09:29:29;;;;;;;26.67;14.85;;;;;;;9.09;100.00;101461.53;5221656;34;34500;-83
2022/11/14 09:32:50;;;;;;;23.35;13.50;;;;;;;9.29;100.00;101457.84;5221150;34;34713;-83
2022/11/14 09:36:17;;;;;;;21.90;13.32;;;;;;;9.42;100.00;101454.00;5219487;34;33583;-83
2022/11/14 09:39:39;;;;;;;26.58;14.77;;;;;;;9.52;100.00;101455.69;5215460;34;34698;-82
2022/11/14 09:43:17;;;;;;;25.50;15.30;;;;;;;9.46;100.00;101452.75;5215176;34;35259;-83
2022/11/14 09:47:00;;;;;;;26.87;15.55;;;;;;;9.53;100.00;101453.84;5217790;34;32705;-83
2022/11/14 09:50:37;;;;;;;26.45;14.98;;;;;;;9.84;100.00;101440.19;5227481;34;34038;-83
2022/11/14 09:54:15;;;;;;;22.77;14.43;;;;;;;9.91;100.00;101436.75;5227051;34;33889;-83
2022/11/14 09:57:36;;;;;;;28.87;14.52;;;;;;;9.80;100.00;101430.69;5240371;34;32410;-83
2022/11/14 10:01:05;;;;;;;27.23;15.98;;;;;;;10.05;100.00;101435.41;5231579;34;33452;-83
2022/11/14 10:05:04;;;;;;;27.20;15.73;;;;;;;10.19;100.00;101423.31;5228995;34;34467;-83
2022/11/14 10:08:40;;;;;;;25.37;15.23;;;;;;;10.19;100.00;101421.47;5221326;34;33999;-83
2022/11/14 10:12:19;;;;;;;25.75;14.90;;;;;;;10.21;100.00;101415.97;5228966;34;33846;-83
2022/11/14 10:15:52;;;;;;;23.77;14.53;;;;;;;10.34;100.00;101415.63;5222567;34;33551;-83
2022/11/14 10:19:37;;;;;;;28.33;16.90;;;;;;;10.57;100.00;101413.34;5234894;34;34719;-84
2022/11/14 10:23:41;;;;;;;25.98;15.20;;;;;;;10.81;100.00;101394.72;5215317;34;32205;-83
2022/11/14 10:27:38;;;;;;;26.33;14.52;;;;;;;10.97;100.00;101395.87;5242142;34;33254;-83
2022/11/14 10:31:34;;;;;;;24.87;15.80;;;;;;;10.93;100.00;101386.41;5193708;34;33470;-87
2022/11/14 10:35:14;;;;;;;27.17;16.45;;;;;;;11.13;100.00;101372.59;5223291;34;32610;-83
2022/11/14 10:38:40;;;;;;;26.33;14.87;;;;;;;11.17;100.00;101377.69;5221212;34;33604;-83
2022/11/14 10:42:08;;;;;;;23.15;14.70;;;;;;;11.44;100.00;101371.31;5222582;34;34217;-83
2022/11/14 10:45:33;;;;;;;22.77;14.02;;;;;;;11.64;100.00;101371.91;5229002;34;33318;-83
2022/11/14 10:48:54;;;;;;;26.10;15.57;;;;;;;11.57;99.38;101369.84;5228392;34;33485;-87
2022/11/14 10:52:27;;;;;;;26.00;15.65;;;;;;;11.68;100.00;101357.94;5221130;34;33894;-82
2022/11/14 10:55:54;;;;;;;24.75;15.15;;;;;;;11.90;99.03;101347.62;5225517;34;34568;-82
2022/11/14 10:59:26;;;;;;;28.33;15.30;;;;;;;12.00;99.98;101349.19;5214160;34;35379;-82
2022/11/14 11:02:56;;;;;;;25.20;15.27;;;;;;;12.06;97.21;101342.28;5211690;34;34001;-82
2022/11/14 11:06:25;;;;;;;24.60;15.20;;;;;;;12.22;95.15;101342.31;5218658;34;34775;-83
2022/11/14 11:13:54;;;;;;;25.02;15.15;;;;;;;13.05;94.18;101330.56;5218412;34;34010;-84
2022/11/14 11:17:21;;;;;;;22.48;14.23;;;;;;;13.51;88.55;101324.56;5203803;34;32563;-83
2022/11/14 11:20:41;;;;;;;24.70;14.93;;;;;;;13.67;86.34;101315.59;5218636;34;33527;-84
2022/11/14 11:24:04;;;;;;;24.02;14.48;;;;;;;14.28;84.28;101319.34;5212196;34;34073;-84
2022/11/14 11:27:28;;;;;;;27.83;16.08;;;;;;;14.79;82.13;101314.22;5215185;34;33583;-83
2022/11/14 11:30:58;;;;;;;25.30;15.30;;;;;;;14.44;82.46;101305.66;5225599;34;33891;-86
2022/11/14 11:34:29;;;;;;;24.52;16.05;;;;;;;15.09;77.61;101303.44;5228007;34;33735;-84
2022/11/14 11:37:55;;;;;;;21.83;14.50;;;;;;;15.70;75.36;101298.72;5233064;34;35373;-84
2022/11/14 11:41:16;;;;;;;26.05;15.05;;;;;;;16.25;70.81;101289.12;5192160;34;32263;-84
2022/11/14 11:45:01;;;;;;;24.33;15.10;;;;;;;16.59;69.57;101281.31;5215097;34;33567;-83
2022/11/14 11:48:26;;;;;;;24.55;14.77;;;;;;;17.10;67.54;101292.84;5211367;34;34637;-86
2022/11/14 11:51:51;;;;;;;23.73;13.57;;;;;;;17.68;64.28;101282.50;5222285;34;34487;-90
2022/11/14 11:55:22;;;;;;;23.48;13.90;;;;;;;18.44;61.08;101275.22;5199764;34;33733;-86
2022/11/14 11:58:47;;;;;;;20.25;12.73;;;;;;;19.14;58.29;101278.41;5217218;34;32661;-86
2022/11/14 12:02:29;;;;;;;22.37;12.98;;;;;;;19.97;54.28;101278.56;5212448;34;32596;-86
2022/11/14 12:06:17;;;;;;;20.42;11.43;;;;;;;21.38;52.03;101263.63;5220634;34;34142;-86
2022/11/14 12:09:40;;;;;;;18.00;11.40;;;;;;;22.72;47.70;101252.47;5217714;34;33631;-88
2022/11/14 12:13:41;;;;;;;18.77;11.85;;;;;;;23.38;43.93;101250.44;5217165;34;34106;-85
2022/11/14 12:17:37;;;;;;;13.43;7.65;;;;;;;23.19;43.50;101248.91;5220634;34;34575;-86
2022/11/14 12:21:41;;;;;;;14.52;8.27;;;;;;;23.89;38.57;101231.44;5209060;34;34772;-84
2022/11/14 12:25:33;;;;;;;10.88;7.30;;;;;;;22.89;40.94;101235.28;5219383;34;31931;-85
2022/11/14 12:29:04;;;;;;;11.00;7.05;;;;;;;25.35;35.79;101222.28;5208711;34;34000;-85
2022/11/14 12:32:33;;;;;;;12.45;6.22;;;;;;;24.91;35.17;101219.44;5220091;34;33664;-85
2022/11/14 12:35:55;;;;;;;;;;;;;;;26.20;31.76;101215.28;5211458;34;33753;-85
2022/11/14 12:39:28;;;;;;;11.50;7.22;;;;;;;25.86;32.98;101209.16;5224863;34;32531;-85
2022/11/14 12:42:50;;;;;;;12.32;7.57;;;;;;;26.06;31.77;101205.75;5223303;34;34052;-86
2022/11/14 12:46:12;;;;;;;12.23;7.18;;;;;;;24.32;35.30;101199.75;5219660;34;33010;-86
2022/11/14 12:49:45;;;;;;;11.35;7.03;;;;;;;23.03;37.74;101195.56;5235948;34;33294;-85
2022/11/14 12:53:34;;;;;;;12.15;7.30;;;;;;;20.12;44.35;101188.91;5214899;34;34188;-85
2022/11/14 12:56:58;;;;;;;;;;;;;;;18.22;48.54;101200.94;5230841;34;33925;-85
2022/11/14 13:00:19;;;;;;;14.73;9.18;;;;;;;16.66;55.36;101184.31;5216241;34;34530;-85
2022/11/14 13:04:10;;;;;;;14.55;8.73;;;;;;;15.64;59.93;101185.44;5205076;34;32823;-85
2022/11/14 13:07:58;;;;;;;15.00;8.88;;;;;;;14.91;63.95;101184.47;5217490;34;32091;-84
2022/11/14 13:23:00;;;;;;;12.80;9.07;;;;;;;13.52;72.06;101181.03;5251210;34;34255;-85
2022/11/14 13:26:24;;;;;;;13.90;9.23;;;;;;;13.36;72.14;101181.94;5229010;34;35421;-84
2022/11/14 13:29:47;;;;;;;13.93;8.98;;;;;;;13.32;73.29;101169.81;5234335;34;32970;-85
2022/11/14 13:33:08;;;;;;;15.07;9.43;;;;;;;12.98;76.31;101174.66;5224062;34;34221;-85
2022/11/14 13:36:50;;;;;;;15.50;9.68;;;;;;;12.83;76.23;101166.41;5232961;34;34202;-86
2022/11/14 13:40:33;;;;;;;14.70;8.35;;;;;;;12.73;76.51;101174.72;5216951;34;32763;-85
2022/11/14 13:44:32;;;;;;;13.82;8.52;;;;;;;12.67;76.08;101170.00;5236582;34;35072;-84
2022/11/14 13:48:13;;;;;;;14.68;8.25;;;;;;;12.55;77.30;101160.56;5215807;34;33408;-85
2022/11/14 13:51:35;;;;;;;16.12;9.23;;;;;;;12.43;78.45;101147.44;5232457;34;33887;-85
2022/11/14 13:55:03;;;;;;;14.15;7.95;;;;;;;12.41;78.23;101145.91;5236860;34;35426;-85
2022/11/14 13:58:34;;;;;;;14.13;8.52;;;;;;;12.38;78.35;101147.09;5224831;34;33378;-85
2022/11/14 14:02:04;;;;;;;14.13;7.93;;;;;;;12.17;78.88;101150.31;5232301;34;33393;-84
2022/11/14 14:06:01;;;;;;;13.82;8.20;;;;;;;12.16;78.83;101147.78;5205978;34;32401;-85
2022/11/14 14:10:04;;;;;;;13.82;7.95;;;;;;;12.11;80.10;101140.22;5227333;34;36580;-86
2022/11/14 14:13:59;;;;;;;15.80;9.10;;;;;;;12.07;80.93;101135.31;5228862;34;35297;-84
2022/11/14 14:17:33;;;;;;;14.18;8.82;;;;;;;11.91;82.86;101128.06;5232511;34;34293;-84
2022/11/14 14:21:21;;;;;;;15.95;8.93;;;;;;;11.80;83.67;101137.28;5232100;34;35379;-84
2022/11/14 14:25:07;;;;;;;20.23;9.35;;;;;;;11.73;84.21;101133.59;5231107;34;34046;-84
2022/11/14 14:28:48;;;;;;;20.70;9.13;;;;;;;11.71;84.78;101135.59;5217870;34;34768;-84
2022/11/14 14:32:12;;;;;;;15.07;8.30;;;;;;;11.66;83.95;101137.94;5219434;34;33960;-83
2022/11/14 14:35:38;;;;;;;15.80;8.27;;;;;;;11.51;85.50;101137.75;5232861;34;35432;-84
2022/11/14 14:39:24;;;;;;;15.57;8.65;;;;;;;11.46;85.39;101132.00;5233809;34;35376;-83
2022/11/14 14:42:45;;;;;;;15.00;8.82;;;;;;;11.32;86.49;101134.34;5229600;34;35470;-86
2022/11/14 14:46:07;;;;;;;15.60;8.95;;;;;;;11.21;87.93;101139.19;5230765;34;35392;-85
2022/11/14 14:49:36;;;;;;;19.25;10.15;;;;;;;11.04;88.16;101133.72;5217867;34;32413;-86
2022/11/14 14:53:00;;;;;;;16.10;9.38;;;;;;;10.97;88.45;101131.81;5214883;34;34387;-86
2022/11/14 14:56:26;;;;;;;16.95;9.27;;;;;;;10.95;88.37;101128.47;5235192;34;34392;-85
2022/11/14 14:59:58;;;;;;;17.00;8.52;;;;;;;10.76;89.25;101130.38;5219951;34;34980;-84
2022/11/14 15:03:21;;;;;;;17.92;9.32;;;;;;;10.63;89.75;101132.69;5221360;34;33967;-85
2022/11/14 15:06:45;;;;;;;20.37;8.80;;;;;;;10.59;89.33;101131.31;5217467;34;33795;-85
2022/11/14 15:10:07;;;;;;;16.00;8.93;;;;;;;10.39;90.09;101119.94;5231945;34;33873;-84
2022/11/14 15:13:30;;;;;;;16.45;8.13;;;;;;;10.23;89.44;101124.13;5220873;34;33507;-85
2022/11/14 15:16:52;;;;;;;18.05;8.90;;;;;;;10.09;89.85;101126.56;5223618;34;34266;-84
2022/11/14 15:20:27;;;;;;;19.58;9.23;;;;;;;9.94;91.02;101127.09;5214762;34;34422;-84
2022/11/14 15:24:15;;;;;;;22.00;10.23;;;;;;;9.82;92.61;101124.81;5215229;34;33986;-85
2022/11/14 15:27:52;;;;;;;25.53;10.23;;;;;;;9.74;93.48;101120.22;5210178;34;34502;-85
2022/11/14 15:31:19;;;;;;;23.55;10.10;;;;;;;9.58;94.94;101120.06;5208231;34;32630;-84
2022/11/14 15:34:40;;;;;;;15.27;8.98;;;;;;;9.49;95.49;101117.28;5204564;34;32726;-84
2022/11/14 15:38:10;;;;;;;21.12;10.88;;;;;;;9.37;96.74;101113.16;5220305;34;34061;-84
2022/11/14 15:42:18;;;;;;;19.87;10.55;;;;;;;9.25;97.86;101122.41;5205820;34;33089;-85
2022/11/14 15:45:39;;;;;;;22.02;10.48;;;;;;;9.10;99.31;101111.34;5207948;34;33114;-85
2022/11/14 15:49:18;;;;;;;18.90;10.05;;;;;;;8.99;100.00;101116.91;5207696;34;33207;-84
2022/11/14 15:52:52;;;;;;;19.55;10.25;;;;;;;8.89;100.00;101116.09;5207957;34;32496;-84
2022/11/14 15:56:14;;;;;;;23.25;10.23;;;;;;;8.82;100.00;101119.38;5207790;34;32410;-84
2022/11/14 15:59:35;;;;;;;18.35;10.60;;;;;;;8.68;100.00;101122.53;5220360;34;33687;-84
2022/11/14 16:02:57;;;;;;;19.12;10.32;;;;;;;8.57;100.00;101114.66;5207113;34;33389;-85
2022/11/14 16:06:18;;;;;;;21.30;11.18;;;;;;;8.57;100.00;101117.34;5219654;34;34581;-85
2022/11/14 16:09:39;;;;;;;19.48;10.68;;;;;;;8.48;100.00;101118.22;5220868;34;35348;-85
2022/11/14 16:13:00;;;;;;;20.23;10.45;;;;;;;8.45;100.00;101126.56;5207373;34;32424;-85
2022/11/14 16:16:21;;;;;;;22.52;10.70;;;;;;;8.37;100.00;101128.13;5207055;34;33427;-85
2022/11/14 16:19:43;;;;;;;20.70;10.88;;;;;;;8.24;100.00;101124.91;5207618;34;32204;-85
2022/11/14 16:23:04;;;;;;;20.08;9.90;;;;;;;8.15;100.00;101125.75;5220003;34;33709;-85
2022/11/14 16:26:26;;;;;;;22.83;10.70;;;;;;;8.08;100.00;101128.19;5207856;34;33160;-85
2022/11/14 16:29:47;;;;;;;25.67;12.35;;;;;;;8.01;100.00;101131.56;5220444;34;33586;-89
2022/11/14 16:33:08;;;;;;;25.67;12.88;;;;;;;8.01;100.00;101126.19;5221733;34;34695;-85
2022/11/14 16:36:30;;;;;;;22.45;11.80;;;;;;;7.95;100.00;101128.47;5219804;34;33653;-85
2022/11/14 16:39:51;;;;;;;22.87;12.35;;;;;;;7.85;100.00;101124.94;5220128;34;34322;-85
2022/11/14 16:43:13;;;;;;;27.45;13.50;;;;;;;7.76;100.00;101125.81;5220305;34;33959;-85
2022/11/14 16:46:37;;;;;;;26.50;14.32;;;;;;;7.71;100.00;101136.94;5208400;34;33736;-85
2022/11/14 16:50:00;;;;;;;23.00;13.35;;;;;;;7.64;100.00;101132.31;5222191;34;34533;-85
2022/11/14 16:53:21;;;;;;;25.65;13.15;;;;;;;7.64;100.00;101129.63;5212956;34;33086;-85
2022/11/14 16:56:42;;;;;;;26.42;13.90;;;;;;;7.58;100.00;101133.69;5220034;34;33873;-90
